Time,TemperatureF,DewpointF,PressureIn,WindDirection,WindDirectionDegrees,WindSpeedMPH,WindSpeedGustMPH,Humidity,HourlyPrecipIn,Conditions,Clouds,dailyrainin,SoftwareType,DateUTC
2013-03-07 00:13:00,37.8,30.0,29.90,NE,52,14.0,25.0,73,0.00,,,0.00,weatherlink.com 1.10,2013-03-07 05:13:00,
2013-03-07 00:28:00,37.0,31.0,29.90,NE,36,9.0,21.0,78,0.00,,,0.00,weatherlink.com 1.10,2013-03-07 05:28:00,
2013-03-07 00:43:00,36.0,32.0,29.91,NE,56,10.0,21.0,84,0.00,,,0.00,weatherlink.com 1.10,2013-03-07 05:43:00,
2013-03-07 00:58:00,35.9,32.0,29.91,ENE,62,12.0,19.0,84,0.00,,,0.00,weatherlink.com 1.10,2013-03-07 05:58:00,
2013-03-07 01:13:00,35.9,32.0,29.91,NE,56,6.0,24.0,84,0.00,,,0.00,weatherlink.com 1.10,2013-03-07 06:13:00,
2013-03-07 01:28:00,35.6,32.0,29.92,NE,53,12.0,17.0,85,0.00,,,0.00,weatherlink.com 1.10,2013-03-07 06:28:00,
2013-03-07 01:43:00,35.4,32.0,29.92,NE,54,5.0,16.0,86,0.00,,,0.00,weatherlink.com 1.10,2013-03-07 06:43:00,
2013-03-07 01:58:00,35.4,32.0,29.91,ENE,65,11.0,12.0,86,0.00,,,0.00,weatherlink.com 1.10,2013-03-07 06:58:00,
2013-03-07 02:13:00,35.7,31.0,29.91,ENE,71,10.0,17.0,84,0.01,,,0.01,weatherlink.com 1.10,2013-03-07 07:13:00,
2013-03-07 02:28:00,36.2,31.0,29.90,NE,47,12.0,16.0,80,0.01,,,0.01,weatherlink.com 1.10,2013-03-07 07:28:00,
2013-03-07 02:44:00,36.5,30.0,29.90,ENE,67,18.0,22.0,78,0.01,,,0.01,weatherlink.com 1.10,2013-03-07 07:44:00,
2013-03-07 02:59:00,36.8,30.0,29.90,East,89,7.0,23.0,76,0.01,,,0.01,weatherlink.com 1.10,2013-03-07 07:59:00,
2013-03-07 03:14:00,36.8,30.0,29.90,ENE,58,15.0,21.0,76,0.00,,,0.01,weatherlink.com 1.10,2013-03-07 08:14:00,
2013-03-07 03:29:00,36.7,30.0,29.91,ENE,75,16.0,19.0,76,0.00,,,0.01,weatherlink.com 1.10,2013-03-07 08:29:00,
2013-03-07 03:44:00,36.7,29.0,29.91,NNE,30,6.0,24.0,75,0.00,,,0.01,weatherlink.com 1.10,2013-03-07 08:44:00,
2013-03-07 03:59:00,36.5,29.0,29.92,ENE,71,8.0,19.0,75,0.00,,,0.01,weatherlink.com 1.10,2013-03-07 08:59:00,
2013-03-07 04:14:00,36.5,30.0,29.92,ENE,61,9.0,20.0,76,0.00,,,0.01,weatherlink.com 1.10,2013-03-07 09:14:00,
2013-03-07 04:29:00,36.5,29.0,29.93,ENE,63,11.0,19.0,75,0.00,,,0.01,weatherlink.com 1.10,2013-03-07 09:29:00,
2013-03-07 04:44:00,36.6,29.0,29.93,ENE,61,11.0,16.0,74,0.00,,,0.01,weatherlink.com 1.10,2013-03-07 09:44:00,
2013-03-07 04:59:00,36.9,29.0,29.94,ENE,57,3.0,16.0,72,0.00,,,0.01,weatherlink.com 1.10,2013-03-07 09:59:00,
2013-03-07 05:14:00,37.1,28.0,29.94,ENE,60,11.0,15.0,71,0.00,,,0.01,weatherlink.com 1.10,2013-03-07 10:14:00,
2013-03-07 05:29:00,37.1,28.0,29.94,NE,52,15.0,18.0,69,0.00,,,0.01,weatherlink.com 1.10,2013-03-07 10:29:00,
2013-03-07 05:44:00,37.3,28.0,29.95,ENE,74,8.0,17.0,68,0.00,,,0.01,weatherlink.com 1.10,2013-03-07 10:44:00,
2013-03-07 05:59:00,37.2,27.0,29.95,NE,50,16.0,18.0,68,0.00,,,0.01,weatherlink.com 1.10,2013-03-07 10:59:00,
2013-03-07 06:14:00,37.1,27.0,29.95,ENE,58,7.0,19.0,68,0.00,,,0.01,weatherlink.com 1.10,2013-03-07 11:14:00,
2013-03-07 06:29:00,37.0,28.0,29.96,East,79,15.0,18.0,70,0.00,,,0.01,weatherlink.com 1.10,2013-03-07 11:29:00,
2013-03-07 06:44:00,36.7,28.0,29.96,NE,56,7.0,20.0,70,0.00,,,0.01,weatherlink.com 1.10,2013-03-07 11:44:00,
2013-03-07 06:59:00,36.7,28.0,29.96,NE,47,15.0,22.0,71,0.00,,,0.01,weatherlink.com 1.10,2013-03-07 11:59:00,
2013-03-07 07:14:00,36.4,29.0,29.97,NE,52,4.0,15.0,73,0.00,,,0.01,weatherlink.com 1.10,2013-03-07 12:14:00,
2013-03-07 07:29:00,36.1,29.0,29.97,ENE,58,7.0,20.0,74,0.00,,,0.01,weatherlink.com 1.10,2013-03-07 12:29:00,
2013-03-07 07:44:00,36.3,28.0,29.98,NE,50,7.0,18.0,73,0.00,,,0.01,weatherlink.com 1.10,2013-03-07 12:44:00,
2013-03-07 07:59:00,36.2,29.0,29.98,ENE,71,12.0,21.0,74,0.00,,,0.01,weatherlink.com 1.10,2013-03-07 12:59:00,
2013-03-07 08:14:00,35.8,30.0,29.98,NE,49,5.0,18.0,79,0.00,,,0.01,weatherlink.com 1.10,2013-03-07 13:14:00,
2013-03-07 08:29:00,35.5,30.0,29.99,East,87,6.0,17.0,81,0.00,,,0.01,weatherlink.com 1.10,2013-03-07 13:29:00,
2013-03-07 08:44:00,35.3,30.0,29.99,ENE,78,7.0,15.0,82,0.00,,,0.01,weatherlink.com 1.10,2013-03-07 13:44:00,
2013-03-07 08:59:00,35.5,31.0,29.99,East,87,5.0,13.0,82,0.00,,,0.01,weatherlink.com 1.10,2013-03-07 13:59:00,
2013-03-07 09:14:00,35.7,30.0,29.99,NE,40,8.0,20.0,81,0.00,,,0.01,weatherlink.com 1.10,2013-03-07 14:14:00,
2013-03-07 09:29:00,35.9,30.0,29.99,NE,34,5.0,23.0,78,0.00,,,0.01,weatherlink.com 1.10,2013-03-07 14:29:00,
2013-03-07 09:44:00,36.7,30.0,29.99,East,95,5.0,15.0,77,0.00,,,0.01,weatherlink.com 1.10,2013-03-07 14:44:00,
2013-03-07 09:59:00,37.2,30.0,29.99,ENE,67,10.0,17.0,75,0.00,,,0.01,weatherlink.com 1.10,2013-03-07 14:59:00,
2013-03-07 10:14:00,37.1,30.0,30.00,North,8,3.0,16.0,75,0.00,,,0.01,weatherlink.com 1.10,2013-03-07 15:14:00,
2013-03-07 10:29:00,36.8,31.0,30.00,East,96,5.0,17.0,79,0.00,,,0.01,weatherlink.com 1.10,2013-03-07 15:29:00,
2013-03-07 10:44:00,36.7,31.0,30.00,NE,53,7.0,15.0,80,0.00,,,0.01,weatherlink.com 1.10,2013-03-07 15:44:00,
2013-03-07 10:59:00,36.9,32.0,30.00,West,264,0.0,9.0,81,0.00,,,0.01,weatherlink.com 1.10,2013-03-07 15:59:00,
2013-03-07 11:14:00,37.0,31.0,30.00,NE,51,8.0,14.0,79,0.00,,,0.01,weatherlink.com 1.10,2013-03-07 16:14:00,
2013-03-07 11:29:00,37.3,31.0,30.00,NNW,329,0.0,13.0,78,0.00,,,0.01,weatherlink.com 1.10,2013-03-07 16:29:00,
2013-03-07 11:44:00,37.4,31.0,30.00,ENE,74,11.0,14.0,79,0.00,,,0.01,weatherlink.com 1.10,2013-03-07 16:44:00,
2013-03-07 11:59:00,37.4,31.0,30.00,ENE,67,5.0,14.0,78,0.00,,,0.01,weatherlink.com 1.10,2013-03-07 16:59:00,
2013-03-07 12:14:00,37.4,31.0,30.00,ENE,60,5.0,16.0,78,0.00,,,0.01,weatherlink.com 1.10,2013-03-07 17:14:00,
2013-03-07 12:29:00,37.6,31.0,30.00,SSE,158,7.0,12.0,78,0.00,,,0.01,weatherlink.com 1.10,2013-03-07 17:29:00,
2013-03-07 12:59:00,37.5,31.0,30.00,East,94,3.0,13.0,78,0.00,,,0.01,weatherlink.com 1.10,2013-03-07 17:59:00,
2013-03-07 13:14:00,37.9,32.0,30.00,NE,56,8.0,8.0,79,0.00,,,0.01,weatherlink.com 1.10,2013-03-07 18:14:00,
2013-03-07 13:29:00,38.3,31.0,30.00,ENE,58,3.0,11.0,76,0.00,,,0.01,weatherlink.com 1.10,2013-03-07 18:29:00,
2013-03-07 13:44:00,38.6,32.0,30.00,ENE,71,7.0,11.0,76,0.00,,,0.01,weatherlink.com 1.10,2013-03-07 18:44:00,
2013-03-07 13:59:00,38.9,32.0,30.00,East,80,4.0,10.0,76,0.00,,,0.01,weatherlink.com 1.10,2013-03-07 18:59:00,
2013-03-07 14:14:00,39.1,32.0,30.00,East,85,1.0,9.0,76,0.00,,,0.01,weatherlink.com 1.10,2013-03-07 19:14:00,
2013-03-07 14:30:00,38.9,32.0,30.01,East,81,8.0,13.0,76,0.00,,,0.01,weatherlink.com 1.10,2013-03-07 19:30:00,
2013-03-07 14:45:00,39.2,32.0,30.01,ESE,107,4.0,13.0,76,0.00,,,0.01,weatherlink.com 1.10,2013-03-07 19:45:00,
2013-03-07 15:00:00,38.7,33.0,30.01,NNE,29,2.0,15.0,79,0.00,,,0.01,weatherlink.com 1.10,2013-03-07 20:00:00,
2013-03-07 15:15:00,37.6,33.0,30.02,East,89,3.0,13.0,82,0.00,,,0.01,weatherlink.com 1.10,2013-03-07 20:15:00,
2013-03-07 15:30:00,37.6,33.0,30.03,NNE,33,11.0,11.0,83,0.00,,,0.01,weatherlink.com 1.10,2013-03-07 20:30:00,
2013-03-07 15:45:00,37.3,33.0,30.03,NW,311,1.0,12.0,84,0.00,,,0.01,weatherlink.com 1.10,2013-03-07 20:45:00,
2013-03-07 16:15:00,36.9,33.0,30.03,West,273,6.0,10.0,86,0.00,,,0.01,weatherlink.com 1.10,2013-03-07 21:15:00,
2013-03-07 16:30:00,36.8,33.0,30.04,NE,34,10.0,10.0,87,0.00,,,0.01,weatherlink.com 1.10,2013-03-07 21:30:00,
2013-03-07 16:45:00,36.5,33.0,30.04,ENE,75,3.0,13.0,88,0.01,,,0.02,weatherlink.com 1.10,2013-03-07 21:45:00,
2013-03-07 17:00:00,36.3,33.0,30.05,NE,36,10.0,10.0,88,0.01,,,0.02,weatherlink.com 1.10,2013-03-07 22:00:00,
2013-03-07 17:15:00,36.0,33.0,30.05,West,277,5.0,10.0,90,0.02,,,0.03,weatherlink.com 1.10,2013-03-07 22:15:00,
2013-03-07 17:30:00,35.9,33.0,30.05,WNW,301,4.0,10.0,89,0.02,,,0.03,weatherlink.com 1.10,2013-03-07 22:30:00,
2013-03-07 17:45:00,35.6,33.0,30.05,ENE,60,3.0,7.0,90,0.02,,,0.04,weatherlink.com 1.10,2013-03-07 22:45:00,
2013-03-07 18:00:00,35.5,33.0,30.05,East,99,1.0,16.0,91,0.03,,,0.05,weatherlink.com 1.10,2013-03-07 23:00:00,
2013-03-07 18:15:00,35.3,33.0,30.06,SSW,205,2.0,8.0,91,0.02,,,0.05,weatherlink.com 1.10,2013-03-07 23:15:00,
2013-03-07 18:30:00,35.2,33.0,30.06,ENE,71,3.0,9.0,91,0.02,,,0.05,weatherlink.com 1.10,2013-03-07 23:30:00,
2013-03-07 18:45:00,35.3,33.0,30.06,WSW,257,1.0,6.0,92,0.01,,,0.05,weatherlink.com 1.10,2013-03-07 23:45:00,
2013-03-07 19:00:00,35.3,33.0,30.06,WNW,293,1.0,7.0,91,0.00,,,0.05,weatherlink.com 1.10,2013-03-08 00:00:00,
2013-03-07 19:15:00,35.3,33.0,30.06,NE,49,2.0,10.0,91,0.01,,,0.06,weatherlink.com 1.10,2013-03-08 00:15:00,
2013-03-07 19:30:00,35.4,33.0,30.06,NE,54,2.0,10.0,90,0.01,,,0.06,weatherlink.com 1.10,2013-03-08 00:30:00,
2013-03-07 19:45:00,35.3,33.0,30.06,ESE,108,0.0,9.0,90,0.01,,,0.06,weatherlink.com 1.10,2013-03-08 00:45:00,
2013-03-07 20:00:00,35.3,33.0,30.06,SW,214,1.0,9.0,90,0.01,,,0.06,weatherlink.com 1.10,2013-03-08 01:00:00,
2013-03-07 20:15:00,35.2,33.0,30.06,West,281,0.0,7.0,91,0.01,,,0.07,weatherlink.com 1.10,2013-03-08 01:15:00,
2013-03-07 20:30:00,35.1,33.0,30.06,SE,127,7.0,11.0,91,0.01,,,0.07,weatherlink.com 1.10,2013-03-08 01:30:00,
2013-03-07 20:45:00,35.0,33.0,30.06,West,279,1.0,8.0,91,0.01,,,0.07,weatherlink.com 1.10,2013-03-08 01:45:00,
2013-03-07 21:00:00,34.8,32.0,30.06,ENE,64,2.0,10.0,90,0.01,,,0.07,weatherlink.com 1.10,2013-03-08 02:00:00,
2013-03-07 21:15:00,34.7,32.0,30.05,ENE,64,4.0,8.0,91,0.01,,,0.08,weatherlink.com 1.10,2013-03-08 02:15:00,
2013-03-07 21:30:00,34.8,33.0,30.05,SW,219,2.0,10.0,91,0.01,,,0.08,weatherlink.com 1.10,2013-03-08 02:30:00,
2013-03-07 21:45:00,34.4,32.0,30.05,East,80,5.0,12.0,91,0.02,,,0.09,weatherlink.com 1.10,2013-03-08 02:45:00,
2013-03-07 22:00:00,34.3,32.0,30.05,ENE,72,6.0,11.0,92,0.01,,,0.09,weatherlink.com 1.10,2013-03-08 03:00:00,
2013-03-07 22:15:00,34.4,32.0,30.05,NE,44,0.0,9.0,92,0.02,,,0.10,weatherlink.com 1.10,2013-03-08 03:15:00,
2013-03-07 22:30:00,34.3,32.0,30.04,NE,54,2.0,7.0,92,0.02,,,0.10,weatherlink.com 1.10,2013-03-08 03:30:00,
2013-03-07 22:45:00,34.2,32.0,30.04,SW,214,0.0,5.0,92,0.01,,,0.10,weatherlink.com 1.10,2013-03-08 03:45:00,
2013-03-07 23:00:00,34.1,32.0,30.04,NNW,334,0.0,7.0,92,0.02,,,0.11,weatherlink.com 1.10,2013-03-08 04:00:00,
2013-03-07 23:15:00,34.1,32.0,30.05,ESE,115,1.0,10.0,92,0.01,,,0.11,weatherlink.com 1.10,2013-03-08 04:15:00,
2013-03-07 23:30:00,34.1,32.0,30.04,West,266,1.0,7.0,92,0.01,,,0.11,weatherlink.com 1.10,2013-03-08 04:30:00,
2013-03-07 23:45:00,34.0,32.0,30.04,East,96,2.0,7.0,92,0.01,,,0.11,weatherlink.com 1.10,2013-03-08 04:45:00,